sensor_id;sensor_type;location;lat;lon;timestamp;P1;durP1;ratioP1;P2;durP2;ratioP2
71562;SDS011;59391;52.504;13.438;2024-01-16T00:01:06;5.15;;;3.28;;
71562;SDS011;59391;52.504;13.438;2024-01-16T00:03:33;6.22;;;3.42;;
71562;SDS011;59391;52.504;13.438;2024-01-16T00:06:00;5.87;;;3.60;;
71562;SDS011;59391;52.504;13.438;2024-01-16T00:08:25;5.90;;;3.50;;
71562;SDS011;59391;52.504;13.438;2024-01-16T00:10:51;6.30;;;3.83;;
71562;SDS011;59391;52.504;13.438;2024-01-16T00:13:17;5.33;;;3.37;;
71562;SDS011;59391;52.504;13.438;2024-01-16T00:15:43;6.13;;;3.73;;
71562;SDS011;59391;52.504;13.438;2024-01-16T00:18:08;8.23;;;3.75;;
71562;SDS011;59391;52.504;13.438;2024-01-16T00:20:34;5.33;;;3.90;;
71562;SDS011;59391;52.504;13.438;2024-01-16T00:23:00;8.20;;;3.85;;
71562;SDS011;59391;52.504;13.438;2024-01-16T00:25:26;7.80;;;4.70;;
71562;SDS011;59391;52.504;13.438;2024-01-16T00:27:51;8.33;;;4.30;;
71562;SDS011;59391;52.504;13.438;2024-01-16T00:30:17;6.28;;;4.25;;
71562;SDS011;59391;52.504;13.438;2024-01-16T00:32:43;8.02;;;4.50;;
71562;SDS011;59391;52.504;13.438;2024-01-16T00:35:09;9.57;;;5.30;;
71562;SDS011;59391;52.504;13.438;2024-01-16T00:37:36;10.50;;;5.23;;
71562;SDS011;59391;52.504;13.438;2024-01-16T00:40:02;9.75;;;4.60;;
71562;SDS011;59391;52.504;13.438;2024-01-16T00:42:29;8.68;;;4.45;;
71562;SDS011;59391;52.504;13.438;2024-01-16T00:44:56;7.15;;;4.38;;
71562;SDS011;59391;52.504;13.438;2024-01-16T00:47:23;6.43;;;4.30;;
71562;SDS011;59391;52.504;13.438;2024-01-16T00:49:49;8.88;;;3.83;;
71562;SDS011;59391;52.504;13.438;2024-01-16T00:52:15;6.22;;;3.92;;
71562;SDS011;59391;52.504;13.438;2024-01-16T00:54:41;6.50;;;3.53;;
71562;SDS011;59391;52.504;13.438;2024-01-16T00:57:07;5.15;;;3.67;;
71562;SDS011;59391;52.504;13.438;2024-01-16T00:59:33;6.93;;;3.88;;
71562;SDS011;59391;52.504;13.438;2024-01-16T01:01:59;5.47;;;3.90;;
71562;SDS011;59391;52.504;13.438;2024-01-16T01:04:24;7.82;;;3.90;;
71562;SDS011;59391;52.504;13.438;2024-01-16T01:06:50;6.63;;;3.37;;
71562;SDS011;59391;52.504;13.438;2024-01-16T01:09:16;4.80;;;3.50;;
71562;SDS011;59391;52.504;13.438;2024-01-16T01:11:42;7.05;;;3.65;;
71562;SDS011;59391;52.504;13.438;2024-01-16T01:14:08;6.22;;;3.35;;
71562;SDS011;59391;52.504;13.438;2024-01-16T01:16:33;5.13;;;3.72;;
71562;SDS011;59391;52.504;13.438;2024-01-16T01:18:59;5.18;;;3.58;;
71562;SDS011;59391;52.504;13.438;2024-01-16T01:21:25;5.97;;;4.38;;
71562;SDS011;59391;52.504;13.438;2024-01-16T01:23:51;5.15;;;3.38;;
71562;SDS011;59391;52.504;13.438;2024-01-16T01:26:17;5.10;;;3.60;;
71562;SDS011;59391;52.504;13.438;2024-01-16T01:28:44;8.32;;;3.45;;
71562;SDS011;59391;52.504;13.438;2024-01-16T01:31:10;4.68;;;3.50;;
71562;SDS011;59391;52.504;13.438;2024-01-16T01:33:37;5.00;;;3.50;;
71562;SDS011;59391;52.504;13.438;2024-01-16T01:36:03;4.97;;;3.20;;
71562;SDS011;59391;52.504;13.438;2024-01-16T01:38:29;5.45;;;3.38;;
71562;SDS011;59391;52.504;13.438;2024-01-16T01:40:54;5.75;;;3.38;;
71562;SDS011;59391;52.504;13.438;2024-01-16T01:43:21;5.20;;;2.67;;
71562;SDS011;59391;52.504;13.438;2024-01-16T01:48:37;5.38;;;3.25;;
71562;SDS011;59391;52.504;13.438;2024-01-16T01:51:05;3.58;;;2.75;;
71562;SDS011;59391;52.504;13.438;2024-01-16T01:53:31;6.03;;;3.25;;
71562;SDS011;59391;52.504;13.438;2024-01-16T01:55:59;5.15;;;3.35;;
71562;SDS011;59391;52.504;13.438;2024-01-16T01:58:29;5.32;;;3.90;;
71562;SDS011;59391;52.504;13.438;2024-01-16T02:00:54;4.93;;;3.20;;
71562;SDS011;59391;52.504;13.438;2024-01-16T02:03:21;4.50;;;3.20;;
71562;SDS011;59391;52.504;13.438;2024-01-16T02:05:50;5.32;;;3.35;;
71562;SDS011;59391;52.504;13.438;2024-01-16T02:08:16;5.57;;;3.05;;
71562;SDS011;59391;52.504;13.438;2024-01-16T02:10:42;5.10;;;3.22;;
71562;SDS011;59391;52.504;13.438;2024-01-16T02:13:12;5.55;;;3.70;;
71562;SDS011;59391;52.504;13.438;2024-01-16T02:15:38;5.85;;;3.20;;
71562;SDS011;59391;52.504;13.438;2024-01-16T02:18:06;5.40;;;3.43;;
71562;SDS011;59391;52.504;13.438;2024-01-16T02:20:32;8.38;;;4.80;;
71562;SDS011;59391;52.504;13.438;2024-01-16T02:22:58;5.07;;;3.33;;
71562;SDS011;59391;52.504;13.438;2024-01-16T02:25:29;5.50;;;3.00;;
71562;SDS011;59391;52.504;13.438;2024-01-16T02:27:55;4.32;;;3.10;;
71562;SDS011;59391;52.504;13.438;2024-01-16T02:30:21;7.20;;;3.50;;
71562;SDS011;59391;52.504;13.438;2024-01-16T02:32:46;4.50;;;3.50;;
71562;SDS011;59391;52.504;13.438;2024-01-16T02:35:12;4.00;;;2.90;;
71562;SDS011;59391;52.504;13.438;2024-01-16T02:37:38;4.55;;;3.00;;
71562;SDS011;59391;52.504;13.438;2024-01-16T02:40:03;4.57;;;3.47;;
71562;SDS011;59391;52.504;13.438;2024-01-16T02:42:31;4.82;;;3.30;;
71562;SDS011;59391;52.504;13.438;2024-01-16T02:44:58;5.75;;;3.58;;
71562;SDS011;59391;52.504;13.438;2024-01-16T02:47:23;5.93;;;3.63;;
71562;SDS011;59391;52.504;13.438;2024-01-16T02:49:49;5.45;;;3.28;;
71562;SDS011;59391;52.504;13.438;2024-01-16T02:52:15;6.60;;;3.53;;
71562;SDS011;59391;52.504;13.438;2024-01-16T02:54:41;5.88;;;3.22;;
71562;SDS011;59391;52.504;13.438;2024-01-16T02:57:06;5.77;;;4.13;;
71562;SDS011;59391;52.504;13.438;2024-01-16T02:59:32;5.03;;;3.40;;
71562;SDS011;59391;52.504;13.438;2024-01-16T03:01:58;5.00;;;3.37;;
71562;SDS011;59391;52.504;13.438;2024-01-16T03:04:23;6.87;;;3.60;;
71562;SDS011;59391;52.504;13.438;2024-01-16T03:06:49;5.43;;;3.67;;
71562;SDS011;59391;52.504;13.438;2024-01-16T03:09:15;4.97;;;3.37;;
71562;SDS011;59391;52.504;13.438;2024-01-16T03:11:41;5.13;;;3.42;;
71562;SDS011;59391;52.504;13.438;2024-01-16T03:14:06;6.60;;;3.83;;
71562;SDS011;59391;52.504;13.438;2024-01-16T03:16:32;6.90;;;3.67;;
71562;SDS011;59391;52.504;13.438;2024-01-16T03:18:58;6.73;;;3.80;;
71562;SDS011;59391;52.504;13.438;2024-01-16T03:21:23;6.22;;;3.83;;
71562;SDS011;59391;52.504;13.438;2024-01-16T03:23:49;6.20;;;4.23;;
71562;SDS011;59391;52.504;13.438;2024-01-16T03:26:15;5.50;;;4.38;;
71562;SDS011;59391;52.504;13.438;2024-01-16T03:28:41;6.65;;;4.10;;
71562;SDS011;59391;52.504;13.438;2024-01-16T03:31:07;6.57;;;3.85;;
71562;SDS011;59391;52.504;13.438;2024-01-16T03:33:33;8.53;;;3.80;;
71562;SDS011;59391;52.504;13.438;2024-01-16T03:35:59;5.95;;;4.10;;
71562;SDS011;59391;52.504;13.438;2024-01-16T03:38:26;5.88;;;3.67;;
71562;SDS011;59391;52.504;13.438;2024-01-16T03:40:51;5.33;;;4.17;;
71562;SDS011;59391;52.504;13.438;2024-01-16T03:43:17;5.97;;;3.75;;
71562;SDS011;59391;52.504;13.438;2024-01-16T03:45:43;6.25;;;4.07;;
71562;SDS011;59391;52.504;13.438;2024-01-16T03:48:09;5.57;;;3.37;;
71562;SDS011;59391;52.504;13.438;2024-01-16T03:50:35;7.03;;;4.13;;
71562;SDS011;59391;52.504;13.438;2024-01-16T03:53:01;7.32;;;3.72;;
71562;SDS011;59391;52.504;13.438;2024-01-16T03:55:29;6.80;;;3.60;;
71562;SDS011;59391;52.504;13.438;2024-01-16T03:57:55;6.15;;;3.97;;
71562;SDS011;59391;52.504;13.438;2024-01-16T04:00:21;5.97;;;3.90;;
71562;SDS011;59391;52.504;13.438;2024-01-16T04:02:47;6.53;;;3.70;;
71562;SDS011;59391;52.504;13.438;2024-01-16T04:05:12;6.23;;;3.83;;
71562;SDS011;59391;52.504;13.438;2024-01-16T04:07:38;6.40;;;4.65;;
71562;SDS011;59391;52.504;13.438;2024-01-16T04:10:05;6.73;;;3.70;;
71562;SDS011;59391;52.504;13.438;2024-01-16T04:12:32;5.82;;;4.15;;
71562;SDS011;59391;52.504;13.438;2024-01-16T04:14:57;7.77;;;4.20;;
71562;SDS011;59391;52.504;13.438;2024-01-16T04:17:23;7.25;;;4.63;;
71562;SDS011;59391;52.504;13.438;2024-01-16T04:19:49;9.93;;;4.80;;
71562;SDS011;59391;52.504;13.438;2024-01-16T04:22:14;8.95;;;4.45;;
71562;SDS011;59391;52.504;13.438;2024-01-16T04:24:40;7.93;;;4.93;;
71562;SDS011;59391;52.504;13.438;2024-01-16T04:27:05;8.27;;;5.20;;
71562;SDS011;59391;52.504;13.438;2024-01-16T04:29:31;9.63;;;5.50;;
71562;SDS011;59391;52.504;13.438;2024-01-16T04:31:57;9.13;;;5.70;;
71562;SDS011;59391;52.504;13.438;2024-01-16T04:34:23;9.50;;;5.32;;
71562;SDS011;59391;52.504;13.438;2024-01-16T04:36:48;9.00;;;5.53;;
71562;SDS011;59391;52.504;13.438;2024-01-16T04:39:14;8.73;;;5.63;;
71562;SDS011;59391;52.504;13.438;2024-01-16T04:41:39;10.43;;;5.78;;
71562;SDS011;59391;52.504;13.438;2024-01-16T04:44:05;8.57;;;5.45;;
71562;SDS011;59391;52.504;13.438;2024-01-16T04:46:31;8.23;;;5.50;;
71562;SDS011;59391;52.504;13.438;2024-01-16T04:48:56;8.30;;;5.18;;
71562;SDS011;59391;52.504;13.438;2024-01-16T04:51:22;10.10;;;5.37;;
71562;SDS011;59391;52.504;13.438;2024-01-16T04:53:47;11.50;;;5.73;;
71562;SDS011;59391;52.504;13.438;2024-01-16T04:56:13;7.97;;;5.50;;
71562;SDS011;59391;52.504;13.438;2024-01-16T04:58:38;9.33;;;5.20;;
71562;SDS011;59391;52.504;13.438;2024-01-16T05:01:04;10.90;;;5.50;;
71562;SDS011;59391;52.504;13.438;2024-01-16T05:03:30;9.68;;;5.43;;
71562;SDS011;59391;52.504;13.438;2024-01-16T05:05:55;9.70;;;5.70;;
71562;SDS011;59391;52.504;13.438;2024-01-16T05:08:21;11.02;;;5.97;;
71562;SDS011;59391;52.504;13.438;2024-01-16T05:10:47;9.80;;;4.97;;
71562;SDS011;59391;52.504;13.438;2024-01-16T05:13:13;8.23;;;4.85;;
71562;SDS011;59391;52.504;13.438;2024-01-16T05:15:40;8.20;;;4.72;;
71562;SDS011;59391;52.504;13.438;2024-01-16T05:18:05;10.00;;;4.90;;
71562;SDS011;59391;52.504;13.438;2024-01-16T05:20:31;8.50;;;4.20;;
71562;SDS011;59391;52.504;13.438;2024-01-16T05:22:57;8.47;;;5.43;;
71562;SDS011;59391;52.504;13.438;2024-01-16T05:25:23;10.35;;;5.50;;
71562;SDS011;59391;52.504;13.438;2024-01-16T05:27:48;7.77;;;5.23;;
71562;SDS011;59391;52.504;13.438;2024-01-16T05:30:16;11.60;;;5.90;;
71562;SDS011;59391;52.504;13.438;2024-01-16T05:32:42;8.40;;;5.47;;
71562;SDS011;59391;52.504;13.438;2024-01-16T05:35:07;9.50;;;5.93;;
71562;SDS011;59391;52.504;13.438;2024-01-16T05:37:34;9.67;;;5.97;;
71562;SDS011;59391;52.504;13.438;2024-01-16T05:40:00;9.60;;;6.40;;
71562;SDS011;59391;52.504;13.438;2024-01-16T05:42:28;10.20;;;6.43;;
71562;SDS011;59391;52.504;13.438;2024-01-16T05:44:54;10.00;;;6.20;;
71562;SDS011;59391;52.504;13.438;2024-01-16T05:47:20;11.70;;;7.00;;
71562;SDS011;59391;52.504;13.438;2024-01-16T05:49:49;11.98;;;7.28;;
71562;SDS011;59391;52.504;13.438;2024-01-16T05:52:14;11.85;;;7.00;;
71562;SDS011;59391;52.504;13.438;2024-01-16T05:54:40;10.70;;;7.10;;
71562;SDS011;59391;52.504;13.438;2024-01-16T05:57:05;12.03;;;7.10;;
71562;SDS011;59391;52.504;13.438;2024-01-16T05:59:31;16.58;;;7.28;;
71562;SDS011;59391;52.504;13.438;2024-01-16T06:01:57;13.40;;;7.20;;
71562;SDS011;59391;52.504;13.438;2024-01-16T06:04:22;13.30;;;7.10;;
71562;SDS011;59391;52.504;13.438;2024-01-16T06:06:48;13.02;;;6.38;;
71562;SDS011;59391;52.504;13.438;2024-01-16T06:09:13;13.10;;;7.00;;
71562;SDS011;59391;52.504;13.438;2024-01-16T06:11:39;10.32;;;6.10;;
71562;SDS011;59391;52.504;13.438;2024-01-16T06:14:06;9.40;;;5.85;;
71562;SDS011;59391;52.504;13.438;2024-01-16T06:16:32;8.90;;;5.23;;
71562;SDS011;59391;52.504;13.438;2024-01-16T06:18:58;11.00;;;6.15;;
71562;SDS011;59391;52.504;13.438;2024-01-16T06:21:23;11.00;;;6.07;;
71562;SDS011;59391;52.504;13.438;2024-01-16T06:23:49;9.00;;;6.65;;
71562;SDS011;59391;52.504;13.438;2024-01-16T06:26:15;10.70;;;5.83;;
71562;SDS011;59391;52.504;13.438;2024-01-16T06:28:41;10.02;;;5.72;;
71562;SDS011;59391;52.504;13.438;2024-01-16T06:31:10;10.32;;;6.88;;
71562;SDS011;59391;52.504;13.438;2024-01-16T06:33:36;11.33;;;6.20;;
71562;SDS011;59391;52.504;13.438;2024-01-16T06:36:02;11.38;;;6.82;;
71562;SDS011;59391;52.504;13.438;2024-01-16T06:38:29;12.85;;;7.43;;
71562;SDS011;59391;52.504;13.438;2024-01-16T06:40:56;10.60;;;6.53;;
71562;SDS011;59391;52.504;13.438;2024-01-16T06:43:23;12.48;;;6.95;;
71562;SDS011;59391;52.504;13.438;2024-01-16T06:45:49;20.40;;;9.70;;
71562;SDS011;59391;52.504;13.438;2024-01-16T06:48:14;13.93;;;7.37;;
71562;SDS011;59391;52.504;13.438;2024-01-16T06:50:40;10.30;;;5.60;;
71562;SDS011;59391;52.504;13.438;2024-01-16T06:53:07;11.38;;;5.80;;
71562;SDS011;59391;52.504;13.438;2024-01-16T06:55:32;9.15;;;5.75;;
71562;SDS011;59391;52.504;13.438;2024-01-16T06:58:01;11.27;;;5.90;;
71562;SDS011;59391;52.504;13.438;2024-01-16T07:00:27;10.55;;;5.40;;
71562;SDS011;59391;52.504;13.438;2024-01-16T07:02:53;15.37;;;5.97;;
71562;SDS011;59391;52.504;13.438;2024-01-16T07:05:20;10.10;;;5.90;;
71562;SDS011;59391;52.504;13.438;2024-01-16T07:07:46;9.52;;;5.68;;
71562;SDS011;59391;52.504;13.438;2024-01-16T07:10:13;10.50;;;6.00;;
71562;SDS011;59391;52.504;13.438;2024-01-16T07:12:43;10.23;;;5.93;;
71562;SDS011;59391;52.504;13.438;2024-01-16T07:15:10;12.57;;;5.70;;
71562;SDS011;59391;52.504;13.438;2024-01-16T07:17:35;13.40;;;6.43;;
71562;SDS011;59391;52.504;13.438;2024-01-16T07:20:01;15.07;;;5.73;;
71562;SDS011;59391;52.504;13.438;2024-01-16T07:22:27;20.10;;;6.13;;
71562;SDS011;59391;52.504;13.438;2024-01-16T07:24:53;9.07;;;5.30;;
71562;SDS011;59391;52.504;13.438;2024-01-16T07:27:19;10.20;;;5.72;;
71562;SDS011;59391;52.504;13.438;2024-01-16T07:29:44;14.93;;;5.80;;
71562;SDS011;59391;52.504;13.438;2024-01-16T07:32:10;16.42;;;5.88;;
71562;SDS011;59391;52.504;13.438;2024-01-16T07:34:36;13.80;;;6.70;;
71562;SDS011;59391;52.504;13.438;2024-01-16T07:37:01;15.18;;;6.72;;
71562;SDS011;59391;52.504;13.438;2024-01-16T07:39:27;15.73;;;8.52;;
71562;SDS011;59391;52.504;13.438;2024-01-16T07:41:53;13.18;;;7.57;;
71562;SDS011;59391;52.504;13.438;2024-01-16T07:44:19;14.80;;;7.97;;
71562;SDS011;59391;52.504;13.438;2024-01-16T07:46:44;15.30;;;8.40;;
71562;SDS011;59391;52.504;13.438;2024-01-16T07:49:10;16.70;;;9.35;;
71562;SDS011;59391;52.504;13.438;2024-01-16T07:51:36;16.57;;;9.27;;
71562;SDS011;59391;52.504;13.438;2024-01-16T07:54:05;14.27;;;8.20;;
71562;SDS011;59391;52.504;13.438;2024-01-16T07:56:33;14.57;;;8.50;;
71562;SDS011;59391;52.504;13.438;2024-01-16T07:58:59;15.63;;;7.77;;
71562;SDS011;59391;52.504;13.438;2024-01-16T08:01:26;15.48;;;7.43;;
71562;SDS011;59391;52.504;13.438;2024-01-16T08:03:53;12.63;;;8.00;;
71562;SDS011;59391;52.504;13.438;2024-01-16T08:06:20;14.55;;;7.53;;
71562;SDS011;59391;52.504;13.438;2024-01-16T08:08:46;11.68;;;7.03;;
71562;SDS011;59391;52.504;13.438;2024-01-16T08:11:13;13.57;;;7.60;;
71562;SDS011;59391;52.504;13.438;2024-01-16T08:13:40;10.40;;;6.30;;
71562;SDS011;59391;52.504;13.438;2024-01-16T08:16:06;11.52;;;6.90;;
71562;SDS011;59391;52.504;13.438;2024-01-16T08:18:33;11.63;;;6.85;;
71562;SDS011;59391;52.504;13.438;2024-01-16T08:20:59;14.65;;;6.10;;
71562;SDS011;59391;52.504;13.438;2024-01-16T08:23:25;11.67;;;6.77;;
71562;SDS011;59391;52.504;13.438;2024-01-16T08:25:50;13.02;;;6.40;;
71562;SDS011;59391;52.504;13.438;2024-01-16T08:28:17;12.47;;;6.37;;
71562;SDS011;59391;52.504;13.438;2024-01-16T08:30:43;10.80;;;6.30;;
71562;SDS011;59391;52.504;13.438;2024-01-16T08:33:09;11.70;;;6.68;;
71562;SDS011;59391;52.504;13.438;2024-01-16T08:35:37;14.88;;;7.25;;
71562;SDS011;59391;52.504;13.438;2024-01-16T08:38:03;13.30;;;7.27;;
71562;SDS011;59391;52.504;13.438;2024-01-16T08:40:29;14.32;;;6.50;;
71562;SDS011;59391;52.504;13.438;2024-01-16T08:42:55;11.65;;;6.90;;
71562;SDS011;59391;52.504;13.438;2024-01-16T08:45:21;16.35;;;7.50;;
71562;SDS011;59391;52.504;13.438;2024-01-16T08:47:48;13.68;;;7.15;;
71562;SDS011;59391;52.504;13.438;2024-01-16T08:50:14;13.83;;;7.40;;
71562;SDS011;59391;52.504;13.438;2024-01-16T08:52:41;13.25;;;7.65;;
71562;SDS011;59391;52.504;13.438;2024-01-16T08:55:07;14.10;;;6.75;;
71562;SDS011;59391;52.504;13.438;2024-01-16T08:57:36;11.65;;;6.82;;
71562;SDS011;59391;52.504;13.438;2024-01-16T09:00:05;13.95;;;6.90;;
71562;SDS011;59391;52.504;13.438;2024-01-16T09:02:33;11.83;;;7.00;;
71562;SDS011;59391;52.504;13.438;2024-01-16T09:05:00;12.10;;;7.18;;
71562;SDS011;59391;52.504;13.438;2024-01-16T09:07:26;12.25;;;6.90;;
71562;SDS011;59391;52.504;13.438;2024-01-16T09:09:52;13.03;;;7.13;;
71562;SDS011;59391;52.504;13.438;2024-01-16T09:12:18;13.27;;;7.78;;
71562;SDS011;59391;52.504;13.438;2024-01-16T09:14:45;11.40;;;6.65;;
71562;SDS011;59391;52.504;13.438;2024-01-16T09:17:11;11.88;;;7.20;;
71562;SDS011;59391;52.504;13.438;2024-01-16T09:19:36;14.10;;;7.57;;
71562;SDS011;59391;52.504;13.438;2024-01-16T09:22:02;15.00;;;8.10;;
71562;SDS011;59391;52.504;13.438;2024-01-16T09:24:28;15.70;;;7.17;;
71562;SDS011;59391;52.504;13.438;2024-01-16T09:26:54;13.82;;;7.95;;
71562;SDS011;59391;52.504;13.438;2024-01-16T09:29:20;13.57;;;7.35;;
71562;SDS011;59391;52.504;13.438;2024-01-16T09:31:47;14.77;;;7.87;;
71562;SDS011;59391;52.504;13.438;2024-01-16T09:34:13;16.08;;;7.53;;
71562;SDS011;59391;52.504;13.438;2024-01-16T09:36:39;13.45;;;7.45;;
71562;SDS011;59391;52.504;13.438;2024-01-16T09:39:05;14.43;;;7.73;;
71562;SDS011;59391;52.504;13.438;2024-01-16T09:41:33;14.18;;;7.80;;
71562;SDS011;59391;52.504;13.438;2024-01-16T09:44:07;15.93;;;8.70;;
71562;SDS011;59391;52.504;13.438;2024-01-16T09:46:32;13.65;;;7.88;;
71562;SDS011;59391;52.504;13.438;2024-01-16T09:49:02;15.17;;;8.00;;
71562;SDS011;59391;52.504;13.438;2024-01-16T09:51:28;16.05;;;7.10;;
71562;SDS011;59391;52.504;13.438;2024-01-16T09:53:54;16.98;;;8.85;;
71562;SDS011;59391;52.504;13.438;2024-01-16T09:56:21;16.80;;;8.97;;
71562;SDS011;59391;52.504;13.438;2024-01-16T09:58:54;20.27;;;8.60;;
71562;SDS011;59391;52.504;13.438;2024-01-16T10:01:27;20.33;;;10.13;;
71562;SDS011;59391;52.504;13.438;2024-01-16T10:03:55;20.67;;;9.68;;
71562;SDS011;59391;52.504;13.438;2024-01-16T10:06:21;39.83;;;17.47;;
71562;SDS011;59391;52.504;13.438;2024-01-16T10:08:49;15.48;;;8.40;;
71562;SDS011;59391;52.504;13.438;2024-01-16T10:11:14;15.47;;;8.27;;
71562;SDS011;59391;52.504;13.438;2024-01-16T10:13:40;22.23;;;10.50;;
71562;SDS011;59391;52.504;13.438;2024-01-16T10:16:06;34.28;;;13.18;;
71562;SDS011;59391;52.504;13.438;2024-01-16T10:18:32;32.67;;;12.85;;
71562;SDS011;59391;52.504;13.438;2024-01-16T10:21:02;20.27;;;9.77;;
71562;SDS011;59391;52.504;13.438;2024-01-16T10:23:29;18.27;;;9.18;;
71562;SDS011;59391;52.504;13.438;2024-01-16T10:28:35;20.47;;;9.13;;
71562;SDS011;59391;52.504;13.438;2024-01-16T10:31:09;14.48;;;8.55;;
71562;SDS011;59391;52.504;13.438;2024-01-16T10:33:37;17.48;;;8.52;;
71562;SDS011;59391;52.504;13.438;2024-01-16T10:36:10;32.13;;;10.68;;
71562;SDS011;59391;52.504;13.438;2024-01-16T10:38:37;15.77;;;8.23;;
71562;SDS011;59391;52.504;13.438;2024-01-16T10:41:10;13.17;;;8.10;;
71562;SDS011;59391;52.504;13.438;2024-01-16T10:43:39;19.50;;;8.23;;
71562;SDS011;59391;52.504;13.438;2024-01-16T10:46:06;19.42;;;8.23;;
71562;SDS011;59391;52.504;13.438;2024-01-16T10:48:41;16.48;;;8.05;;
71562;SDS011;59391;52.504;13.438;2024-01-16T10:51:14;14.13;;;8.15;;
71562;SDS011;59391;52.504;13.438;2024-01-16T10:53:43;18.27;;;7.27;;
71562;SDS011;59391;52.504;13.438;2024-01-16T10:56:11;13.55;;;7.63;;
71562;SDS011;59391;52.504;13.438;2024-01-16T10:58:41;10.18;;;6.07;;
71562;SDS011;59391;52.504;13.438;2024-01-16T11:01:12;11.57;;;6.53;;
71562;SDS011;59391;52.504;13.438;2024-01-16T11:06:15;11.13;;;6.47;;
71562;SDS011;59391;52.504;13.438;2024-01-16T11:08:42;11.30;;;5.40;;
71562;SDS011;59391;52.504;13.438;2024-01-16T11:11:14;8.30;;;5.28;;
71562;SDS011;59391;52.504;13.438;2024-01-16T11:13:41;15.05;;;5.88;;
71562;SDS011;59391;52.504;13.438;2024-01-16T11:16:10;11.15;;;5.47;;
71562;SDS011;59391;52.504;13.438;2024-01-16T11:18:36;11.27;;;5.30;;
71562;SDS011;59391;52.504;13.438;2024-01-16T11:21:04;8.80;;;4.80;;
71562;SDS011;59391;52.504;13.438;2024-01-16T11:23:34;11.00;;;5.28;;
71562;SDS011;59391;52.504;13.438;2024-01-16T11:28:51;11.27;;;5.63;;
71562;SDS011;59391;52.504;13.438;2024-01-16T11:31:31;9.33;;;5.80;;
71562;SDS011;59391;52.504;13.438;2024-01-16T11:34:00;9.80;;;5.53;;
71562;SDS011;59391;52.504;13.438;2024-01-16T11:39:22;9.18;;;5.30;;
71562;SDS011;59391;52.504;13.438;2024-01-16T11:41:54;20.70;;;9.30;;
71562;SDS011;59391;52.504;13.438;2024-01-16T11:44:40;12.30;;;5.07;;
71562;SDS011;59391;52.504;13.438;2024-01-16T11:47:19;11.75;;;5.63;;
71562;SDS011;59391;52.504;13.438;2024-01-16T11:49:50;11.32;;;5.75;;
71562;SDS011;59391;52.504;13.438;2024-01-16T11:52:43;12.10;;;5.95;;
71562;SDS011;59391;52.504;13.438;2024-01-16T11:55:26;14.57;;;7.00;;
71562;SDS011;59391;52.504;13.438;2024-01-16T12:00:58;12.20;;;6.93;;
71562;SDS011;59391;52.504;13.438;2024-01-16T12:03:24;17.15;;;6.65;;
71562;SDS011;59391;52.504;13.438;2024-01-16T12:05:56;13.37;;;6.27;;
71562;SDS011;59391;52.504;13.438;2024-01-16T12:08:23;30.88;;;11.93;;
71562;SDS011;59391;52.504;13.438;2024-01-16T12:10:49;29.05;;;11.10;;
71562;SDS011;59391;52.504;13.438;2024-01-16T12:13:15;23.70;;;10.40;;
71562;SDS011;59391;52.504;13.438;2024-01-16T12:15:41;23.90;;;8.40;;
71562;SDS011;59391;52.504;13.438;2024-01-16T12:18:08;28.75;;;11.57;;
71562;SDS011;59391;52.504;13.438;2024-01-16T12:20:35;17.75;;;7.88;;
71562;SDS011;59391;52.504;13.438;2024-01-16T12:23:06;18.83;;;8.52;;
71562;SDS011;59391;52.504;13.438;2024-01-16T12:25:33;20.13;;;8.13;;
71562;SDS011;59391;52.504;13.438;2024-01-16T12:28:00;21.58;;;8.85;;
71562;SDS011;59391;52.504;13.438;2024-01-16T12:30:31;13.15;;;7.15;;
71562;SDS011;59391;52.504;13.438;2024-01-16T12:33:12;22.15;;;9.30;;
71562;SDS011;59391;52.504;13.438;2024-01-16T12:35:39;14.55;;;6.72;;
71562;SDS011;59391;52.504;13.438;2024-01-16T12:38:07;19.27;;;8.30;;
71562;SDS011;59391;52.504;13.438;2024-01-16T12:40:39;16.15;;;7.32;;
71562;SDS011;59391;52.504;13.438;2024-01-16T12:43:09;13.80;;;7.32;;
71562;SDS011;59391;52.504;13.438;2024-01-16T12:45:35;13.25;;;7.47;;
71562;SDS011;59391;52.504;13.438;2024-01-16T12:48:01;20.57;;;9.07;;
71562;SDS011;59391;52.504;13.438;2024-01-16T12:50:33;13.60;;;6.70;;
71562;SDS011;59391;52.504;13.438;2024-01-16T12:53:10;15.65;;;7.57;;
71562;SDS011;59391;52.504;13.438;2024-01-16T12:55:39;20.63;;;9.68;;
71562;SDS011;59391;52.504;13.438;2024-01-16T12:58:12;15.20;;;6.80;;
71562;SDS011;59391;52.504;13.438;2024-01-16T13:00:52;14.20;;;6.72;;
71562;SDS011;59391;52.504;13.438;2024-01-16T13:03:18;18.48;;;6.95;;
71562;SDS011;59391;52.504;13.438;2024-01-16T13:05:59;10.05;;;5.68;;
71562;SDS011;59391;52.504;13.438;2024-01-16T13:08:26;15.18;;;6.88;;
71562;SDS011;59391;52.504;13.438;2024-01-16T13:11:02;13.27;;;6.67;;
71562;SDS011;59391;52.504;13.438;2024-01-16T13:13:29;14.15;;;6.82;;
71562;SDS011;59391;52.504;13.438;2024-01-16T13:15:55;14.85;;;6.97;;
71562;SDS011;59391;52.504;13.438;2024-01-16T13:18:28;15.77;;;7.13;;
71562;SDS011;59391;52.504;13.438;2024-01-16T13:20:56;12.45;;;6.72;;
71562;SDS011;59391;52.504;13.438;2024-01-16T13:23:23;12.63;;;6.10;;
71562;SDS011;59391;52.504;13.438;2024-01-16T13:25:50;14.98;;;7.00;;
71562;SDS011;59391;52.504;13.438;2024-01-16T13:28:17;11.52;;;6.82;;
71562;SDS011;59391;52.504;13.438;2024-01-16T13:30:44;11.05;;;5.88;;
71562;SDS011;59391;52.504;13.438;2024-01-16T13:33:12;14.65;;;6.65;;
71562;SDS011;59391;52.504;13.438;2024-01-16T13:35:39;13.67;;;6.47;;
71562;SDS011;59391;52.504;13.438;2024-01-16T13:38:06;10.82;;;6.20;;
71562;SDS011;59391;52.504;13.438;2024-01-16T13:40:33;17.77;;;5.97;;
71562;SDS011;59391;52.504;13.438;2024-01-16T13:43:00;10.68;;;5.25;;
71562;SDS011;59391;52.504;13.438;2024-01-16T13:45:27;13.88;;;5.43;;
71562;SDS011;59391;52.504;13.438;2024-01-16T13:47:53;18.93;;;6.87;;
71562;SDS011;59391;52.504;13.438;2024-01-16T13:50:20;10.48;;;5.38;;
71562;SDS011;59391;52.504;13.438;2024-01-16T13:52:46;10.32;;;5.57;;
71562;SDS011;59391;52.504;13.438;2024-01-16T13:55:12;15.27;;;5.88;;
71562;SDS011;59391;52.504;13.438;2024-01-16T13:57:37;10.20;;;6.07;;
71562;SDS011;59391;52.504;13.438;2024-01-16T14:00:03;13.77;;;5.57;;
71562;SDS011;59391;52.504;13.438;2024-01-16T14:02:38;16.90;;;5.70;;
71562;SDS011;59391;52.504;13.438;2024-01-16T14:05:09;11.23;;;5.32;;
71562;SDS011;59391;52.504;13.438;2024-01-16T14:07:48;14.00;;;5.97;;
71562;SDS011;59391;52.504;13.438;2024-01-16T14:10:16;11.77;;;5.32;;
71562;SDS011;59391;52.504;13.438;2024-01-16T14:12:47;12.95;;;5.75;;
71562;SDS011;59391;52.504;13.438;2024-01-16T14:15:15;11.40;;;5.30;;
71562;SDS011;59391;52.504;13.438;2024-01-16T14:17:47;13.77;;;5.88;;
71562;SDS011;59391;52.504;13.438;2024-01-16T14:20:14;12.77;;;5.57;;
71562;SDS011;59391;52.504;13.438;2024-01-16T14:22:41;13.80;;;5.88;;
71562;SDS011;59391;52.504;13.438;2024-01-16T14:25:08;11.80;;;5.55;;
71562;SDS011;59391;52.504;13.438;2024-01-16T14:27:42;14.98;;;5.72;;
71562;SDS011;59391;52.504;13.438;2024-01-16T14:30:11;13.35;;;5.68;;
71562;SDS011;59391;52.504;13.438;2024-01-16T14:32:42;14.07;;;5.17;;
71562;SDS011;59391;52.504;13.438;2024-01-16T14:35:10;11.60;;;5.30;;
71562;SDS011;59391;52.504;13.438;2024-01-16T14:37:39;13.60;;;6.00;;
71562;SDS011;59391;52.504;13.438;2024-01-16T14:40:08;17.33;;;8.82;;
71562;SDS011;59391;52.504;13.438;2024-01-16T14:42:50;13.38;;;6.05;;